Elrama, Pennsylvania
Current Conditions -  °F | °C
As of 3:53 AM on Friday 31 Oct 2014 (Local Time) from KAGC Reporting Station
Overcast Overcast  
Wind Chill: 45°   Ceiling: 4700
Heat Index: 45°   Visibility: 10mi
Dew Point: 34°   Wind: 3mph
Humidity: 65%   Direction: 210°SSW
Pressure: 29.98"   Gusts: NA
Location:  40.25°N, 79.92°W
Report Text: KAGC 310753Z 21003KT 10SM OVC047 07/01 A2998 RMK AO2 SLP160 T00720011
Loading
Personal Weather Stations






























Interactive Weather Map New forecast layout! Learn more

10-Day Weather Forecast

Advertisements
Track Severe Weather on mobile